Tres Hombres — 9LD2206 — position and weather

sailwx.info

Track history (hours):
 
Tides and Currents Weather Stations Pressure Air Temp Water Temp Dewpoint Dewpoint Depression Visibility Wind Speed Wind Dir Waves Ship Positions

Tres Hombres

Ship's website: http://www.zeilendehandelsvaart.nl/

Last reported at 2014-Aug-27 18:00 UTC. Time now 2014-Sep-01 11:45 UTC.
Position N 55°42' W 001°36'.

Length 32 m.

Type: Sailing vessel. MMSI: 667905000.

Wind from 140 at 12 knots

Waves 0.5 meters (2 feet), 3 second period

Barometer 1015.0 mb
Air temperature 13.5 ° C
Dewpoint 10.9 ° C
Water temperature 13.3 ° C

Date/timePositionNaut miles runAvg speedWind from/ knotsBaromVisibWave heightAir tempDewpointWater temp
2014-Aug-27 18:00N 55°42' W 001°36'118 3.9 140 / 121015.0 0.513.510.913.3
2014-Aug-26 12:00N 55°48' E 001°54'   010 / 161013.0 1.014.511.0
2014-Aug-22 12:00N 58°18' E 008°54'105 3.4 200 / 131005.0 1.517.011.918.4
2014-Aug-21 05:21N 57°17' E 011°34'60 6.0
2014-Aug-20 19:21N 56°22' E 012°19'17 6.1
2014-Aug-20 16:33N 56°07' E 012°33'1 1.1
2014-Aug-20 15:31N 56°06' E 012°35'2 1.6
2014-Aug-20 14:33N 56°05' E 012°36'2 1.8
2014-Aug-20 13:33N 56°03' E 012°37'13 6.2
2014-Aug-20 11:24N 55°50' E 012°38'5 5.6
2014-Aug-20 10:33N 55°45' E 012°39'5 3.4
2014-Aug-20 09:15N 55°41' E 012°36'0 0.0
2014-Aug-20 08:33N 55°41' E 012°36'0 0.0
2014-Aug-20 07:33N 55°41' E 012°36'0 0.0
2014-Aug-20 06:27N 55°41' E 012°36'0 0.0
2014-Aug-20 05:33N 55°41' E 012°36'0 0.0
2014-Aug-20 04:33N 55°41' E 012°36'0 0.0
2014-Aug-20 03:33N 55°41' E 012°36'0 0.0
2014-Aug-20 02:24N 55°41' E 012°36'0 0.0
2014-Aug-20 01:30N 55°41' E 012°36'0 0.0
2014-Aug-20 00:30N 55°41' E 012°36'0 0.0
2014-Aug-19 23:30N 55°41' E 012°36'0 0.0
2014-Aug-19 22:30N 55°41' E 012°36'0 0.0
2014-Aug-19 21:27N 55°41' E 012°36'0 0.0
2014-Aug-19 20:33N 55°41' E 012°36'0 0.0
2014-Aug-19 19:33N 55°41' E 012°36'0 0.0
2014-Aug-19 18:33N 55°41' E 012°36'0 0.0
2014-Aug-19 17:33N 55°41' E 012°36'0 0.0
2014-Aug-19 16:33N 55°41' E 012°36'0 0.0
2014-Aug-19 15:33N 55°41' E 012°36'0 0.0
2014-Aug-19 14:21N 55°41' E 012°36'0 0.0
2014-Aug-19 13:27N 55°41' E 012°36'0 0.0
2014-Aug-19 12:33N 55°41' E 012°36'0 0.0
2014-Aug-19 11:15N 55°41' E 012°36'0 0.0
2014-Aug-19 10:15N 55°41' E 012°36'0 0.0
2014-Aug-19 09:33N 55°41' E 012°36'0 0.0
2014-Aug-19 08:27N 55°41' E 012°36'0 0.0
2014-Aug-19 07:21N 55°41' E 012°36'0 0.0
2014-Aug-19 06:33N 55°41' E 012°36'0 0.0
2014-Aug-19 05:33N 55°41' E 012°36'0 0.0
2014-Aug-19 04:21N 55°41' E 012°36'0 0.0
2014-Aug-19 03:33N 55°41' E 012°36'0 0.0
2014-Aug-19 02:27N 55°41' E 012°36'0 0.0
2014-Aug-19 01:33N 55°41' E 012°36'0 0.0
2014-Aug-19 00:33N 55°41' E 012°36'0 0.0
2014-Aug-18 23:33N 55°41' E 012°36'0 0.0
2014-Aug-18 22:33N 55°41' E 012°36'0 0.0
2014-Aug-18 21:33N 55°41' E 012°36'0 0.0
2014-Aug-18 20:30N 55°41' E 012°36'0 0.0
2014-Aug-18 19:18N 55°41' E 012°36'0 0.0
2014-Aug-18 18:24N 55°41' E 012°36'0 0.0
2014-Aug-18 17:21N 55°41' E 012°36'0 0.0
2014-Aug-18 16:33N 55°41' E 012°36'0 0.0
2014-Aug-18 15:33N 55°41' E 012°36'0 0.0
2014-Aug-18 14:33N 55°41' E 012°36'0 0.0
2014-Aug-18 13:33N 55°41' E 012°36'0 0.0
2014-Aug-18 12:33N 55°41' E 012°36'0 0.0
2014-Aug-18 11:09N 55°41' E 012°36'0 0.0
2014-Aug-18 10:33N 55°41' E 012°36'0 0.0
2014-Aug-18 09:21N 55°41' E 012°36'0 0.0
2014-Aug-18 08:27N 55°41' E 012°36'0 0.0
2014-Aug-18 07:33N 55°41' E 012°36'0 0.0
2014-Aug-18 06:33N 55°41' E 012°36'0 0.0
2014-Aug-18 05:33N 55°41' E 012°36'0 0.0
2014-Aug-18 04:33N 55°41' E 012°36'0 0.0
2014-Aug-18 03:33N 55°41' E 012°36'0 0.0
2014-Aug-18 02:33N 55°41' E 012°36'0 0.0
2014-Aug-18 01:33N 55°41' E 012°36'0 0.0
2014-Aug-18 00:27N 55°41' E 012°36'0 0.0
2014-Aug-17 18:33N 55°41' E 012°36'  
Track history (hours):
 
Tides and Currents Weather Stations Pressure Air Temp Water Temp Dewpoint Dewpoint Depression Visibility Wind Speed Wind Dir Waves Ship Positions

Tres Hombres

Ship's website: http://www.zeilendehandelsvaart.nl/

Last reported at 2014-Aug-27 18:00 UTC. Time now 2014-Sep-01 11:45 UTC.
Position N 55°42' W 001°36'.

Length 32 m.

Type: Sailing vessel. MMSI: 667905000.

Wind from 140 at 12 knots

Waves 0.5 meters (2 feet), 3 second period

Barometer 1015.0 mb
Air temperature 13.5 ° C
Dewpoint 10.9 ° C
Water temperature 13.3 ° C

Date/timePositionNaut miles runAvg speedWind from/ knotsBaromVisibWave heightAir tempDewpointWater temp
2014-Aug-27 18:00N 55°42' W 001°36'118 3.9 140 / 121015.0 0.513.510.913.3
2014-Aug-26 12:00N 55°48' E 001°54'   010 / 161013.0 1.014.511.0
2014-Aug-22 12:00N 58°18' E 008°54'105 3.4 200 / 131005.0 1.517.011.918.4
2014-Aug-21 05:21N 57°17' E 011°34'60 6.0
2014-Aug-20 19:21N 56°22' E 012°19'17 6.1
2014-Aug-20 16:33N 56°07' E 012°33'1 1.1
2014-Aug-20 15:31N 56°06' E 012°35'2 1.6
2014-Aug-20 14:33N 56°05' E 012°36'2 1.8
2014-Aug-20 13:33N 56°03' E 012°37'13 6.2
2014-Aug-20 11:24N 55°50' E 012°38'5 5.6
2014-Aug-20 10:33N 55°45' E 012°39'5 3.4
2014-Aug-20 09:15N 55°41' E 012°36'0 0.0
2014-Aug-20 08:33N 55°41' E 012°36'0 0.0
2014-Aug-20 07:33N 55°41' E 012°36'0 0.0
2014-Aug-20 06:27N 55°41' E 012°36'0 0.0
2014-Aug-20 05:33N 55°41' E 012°36'0 0.0
2014-Aug-20 04:33N 55°41' E 012°36'0 0.0
2014-Aug-20 03:33N 55°41' E 012°36'0 0.0
2014-Aug-20 02:24N 55°41' E 012°36'0 0.0
2014-Aug-20 01:30N 55°41' E 012°36'0 0.0
2014-Aug-20 00:30N 55°41' E 012°36'0 0.0
2014-Aug-19 23:30N 55°41' E 012°36'0 0.0
2014-Aug-19 22:30N 55°41' E 012°36'0 0.0
2014-Aug-19 21:27N 55°41' E 012°36'0 0.0
2014-Aug-19 20:33N 55°41' E 012°36'0 0.0
2014-Aug-19 19:33N 55°41' E 012°36'0 0.0
2014-Aug-19 18:33N 55°41' E 012°36'0 0.0
2014-Aug-19 17:33N 55°41' E 012°36'0 0.0
2014-Aug-19 16:33N 55°41' E 012°36'0 0.0
2014-Aug-19 15:33N 55°41' E 012°36'0 0.0
2014-Aug-19 14:21N 55°41' E 012°36'0 0.0
2014-Aug-19 13:27N 55°41' E 012°36'0 0.0
2014-Aug-19 12:33N 55°41' E 012°36'0 0.0
2014-Aug-19 11:15N 55°41' E 012°36'0 0.0
2014-Aug-19 10:15N 55°41' E 012°36'0 0.0
2014-Aug-19 09:33N 55°41' E 012°36'0 0.0
2014-Aug-19 08:27N 55°41' E 012°36'0 0.0
2014-Aug-19 07:21N 55°41' E 012°36'0 0.0
2014-Aug-19 06:33N 55°41' E 012°36'0 0.0
2014-Aug-19 05:33N 55°41' E 012°36'0 0.0
2014-Aug-19 04:21N 55°41' E 012°36'0 0.0
2014-Aug-19 03:33N 55°41' E 012°36'0 0.0
2014-Aug-19 02:27N 55°41' E 012°36'0 0.0
2014-Aug-19 01:33N 55°41' E 012°36'0 0.0
2014-Aug-19 00:33N 55°41' E 012°36'0 0.0
2014-Aug-18 23:33N 55°41' E 012°36'0 0.0
2014-Aug-18 22:33N 55°41' E 012°36'0 0.0
2014-Aug-18 21:33N 55°41' E 012°36'0 0.0
2014-Aug-18 20:30N 55°41' E 012°36'0 0.0
2014-Aug-18 19:18N 55°41' E 012°36'0 0.0
2014-Aug-18 18:24N 55°41' E 012°36'0 0.0
2014-Aug-18 17:21N 55°41' E 012°36'0 0.0
2014-Aug-18 16:33N 55°41' E 012°36'0 0.0
2014-Aug-18 15:33N 55°41' E 012°36'0 0.0
2014-Aug-18 14:33N 55°41' E 012°36'0 0.0
2014-Aug-18 13:33N 55°41' E 012°36'0 0.0
2014-Aug-18 12:33N 55°41' E 012°36'0 0.0
2014-Aug-18 11:09N 55°41' E 012°36'0 0.0
2014-Aug-18 10:33N 55°41' E 012°36'0 0.0
2014-Aug-18 09:21N 55°41' E 012°36'0 0.0
2014-Aug-18 08:27N 55°41' E 012°36'0 0.0
2014-Aug-18 07:33N 55°41' E 012°36'0 0.0
2014-Aug-18 06:33N 55°41' E 012°36'0 0.0
2014-Aug-18 05:33N 55°41' E 012°36'0 0.0
2014-Aug-18 04:33N 55°41' E 012°36'0 0.0
2014-Aug-18 03:33N 55°41' E 012°36'0 0.0
2014-Aug-18 02:33N 55°41' E 012°36'0 0.0
2014-Aug-18 01:33N 55°41' E 012°36'0 0.0
2014-Aug-18 00:27N 55°41' E 012°36'0 0.0
2014-Aug-17 18:33N 55°41' E 012°36'  

Dump ship's entire track history